createdAt,value
2023-01-13T00:01:07.213Z,99415.91
2023-01-13T00:03:34.240Z,99410.16
2023-01-13T00:06:01.346Z,99413.69
2023-01-13T00:08:30.859Z,99415.91
2023-01-13T00:10:57.692Z,99412.50
2023-01-13T00:13:29.810Z,99408.53
2023-01-13T00:16:18.489Z,99400.94
2023-01-13T00:18:46.804Z,99398.81
2023-01-13T00:21:17.223Z,99409.03
2023-01-13T00:23:47.285Z,99401.38
2023-01-13T00:26:23.733Z,99401.25
2023-01-13T00:28:51.309Z,99392.69
2023-01-13T00:32:13.131Z,99395.69
2023-01-13T00:34:39.989Z,99397.94
2023-01-13T00:38:01.713Z,99395.75
2023-01-13T00:44:32.215Z,99374.72
2023-01-13T00:54:46.767Z,99364.00
2023-01-13T00:57:17.393Z,99352.56
2023-01-13T00:59:49.443Z,99353.53
2023-01-13T01:02:16.810Z,99349.59
2023-01-13T01:04:43.736Z,99344.47
2023-01-13T01:07:10.644Z,99342.59
2023-01-13T01:09:37.891Z,99344.91
2023-01-13T01:12:09.366Z,99340.94
2023-01-13T01:15:08.213Z,99346.78
2023-01-13T01:17:42.584Z,99342.50
2023-01-13T01:20:11.262Z,99342.50
2023-01-13T01:22:44.239Z,99341.31
2023-01-13T01:25:12.518Z,99353.75
2023-01-13T01:27:40.743Z,99353.41
2023-01-13T01:30:11.367Z,99345.97
2023-01-13T01:32:38.287Z,99347.00
2023-01-13T01:35:06.617Z,99347.00
2023-01-13T01:37:33.655Z,99349.69
2023-01-13T01:40:00.468Z,99353.00
2023-01-13T01:42:28.795Z,99347.44
2023-01-13T01:45:01.921Z,99352.25
2023-01-13T01:47:32.351Z,99345.78
2023-01-13T01:50:02.904Z,99346.03
2023-01-13T01:52:36.637Z,99342.88
2023-01-13T01:55:12.304Z,99339.78
2023-01-13T01:57:47.576Z,99337.53
2023-01-13T02:00:15.666Z,99330.56
2023-01-13T02:02:48.064Z,99343.84
2023-01-13T02:05:16.254Z,99341.38
2023-01-13T02:07:47.138Z,99347.78
2023-01-13T02:10:18.133Z,99341.94
2023-01-13T02:12:47.993Z,99347.78
2023-01-13T02:15:23.416Z,99342.63
2023-01-13T02:18:21.332Z,99346.81
2023-01-13T02:21:05.708Z,99347.50
2023-01-13T02:24:09.231Z,99340.22
2023-01-13T02:27:18.189Z,99324.28
2023-01-13T02:30:07.831Z,99312.88
2023-01-13T02:32:49.809Z,99316.19
2023-01-13T02:35:26.921Z,99315.56
2023-01-13T02:37:58.481Z,99307.66
2023-01-13T02:40:34.378Z,99313.03
2023-01-13T02:43:11.295Z,99305.34
2023-01-13T02:45:48.845Z,99301.41
2023-01-13T02:48:20.600Z,99302.25
2023-01-13T02:50:55.522Z,99300.38
2023-01-13T02:53:32.305Z,99296.41
2023-01-13T02:56:04.822Z,99305.13
2023-01-13T02:58:37.091Z,99304.00
2023-01-13T03:01:05.833Z,99297.09
2023-01-13T03:03:32.717Z,99301.16
2023-01-13T03:06:22.955Z,99294.69
2023-01-13T03:09:00.094Z,99296.88
2023-01-13T03:11:39.035Z,99293.13
2023-01-13T03:14:29.089Z,99293.13
2023-01-13T03:17:21.582Z,99287.88
2023-01-13T03:20:00.338Z,99288.44
2023-01-13T03:22:36.780Z,99279.91
2023-01-13T03:25:14.066Z,99272.63
2023-01-13T03:27:53.019Z,99269.69
2023-01-13T03:30:28.287Z,99273.47
2023-01-13T03:33:04.801Z,99262.66
2023-01-13T03:35:39.543Z,99271.44
2023-01-13T03:38:14.702Z,99269.75
2023-01-13T03:40:51.002Z,99264.59
2023-01-13T03:43:27.850Z,99267.50
2023-01-13T03:46:02.888Z,99253.53
2023-01-13T03:48:38.737Z,99260.97
2023-01-13T03:51:11.223Z,99252.28
2023-01-13T03:53:47.627Z,99248.97
2023-01-13T03:56:22.342Z,99249.44
2023-01-13T03:58:52.731Z,99252.28
2023-01-13T04:01:29.046Z,99245.44
2023-01-13T04:04:06.009Z,99253.31
2023-01-13T04:06:54.984Z,99248.53
2023-01-13T04:09:34.024Z,99251.00
2023-01-13T04:12:11.030Z,99229.38
2023-01-13T04:14:39.883Z,99240.41
2023-01-13T04:17:06.859Z,99242.91
2023-01-13T04:19:35.144Z,99232.31
2023-01-13T04:22:02.318Z,99232.53
2023-01-13T04:24:29.193Z,99226.75
2023-01-13T04:26:56.080Z,99219.94
2023-01-13T04:29:22.900Z,99223.47
2023-01-13T04:31:57.712Z,99228.44
2023-01-13T04:34:34.692Z,99223.09
2023-01-13T04:37:16.941Z,99219.56
2023-01-13T04:39:43.867Z,99222.25
2023-01-13T04:42:11.006Z,99228.34
2023-01-13T04:44:37.991Z,99229.56
2023-01-13T04:47:05.245Z,99221.06
2023-01-13T04:49:32.351Z,99218.97
2023-01-13T04:51:59.364Z,99222.94
2023-01-13T04:54:27.515Z,99222.72
2023-01-13T05:00:20.326Z,99236.44
2023-01-13T05:05:35.796Z,99224.59
2023-01-13T05:08:04.084Z,99231.66
2023-01-13T05:10:32.531Z,99227.44
2023-01-13T05:12:59.984Z,99224.97
2023-01-13T05:15:29.362Z,99223.09
2023-01-13T05:18:36.144Z,99232.25
2023-01-13T05:21:04.335Z,99223.31
2023-01-13T05:23:31.432Z,99228.28
2023-01-13T05:26:01.888Z,99226.63
2023-01-13T05:28:32.308Z,99217.69
2023-01-13T05:30:59.995Z,99221.22
2023-01-13T05:33:26.833Z,99213.34
2023-01-13T05:35:53.719Z,99209.31
2023-01-13T05:38:22.604Z,99213.25
2023-01-13T05:40:55.711Z,99207.84
2023-01-13T05:43:27.887Z,99213.88
2023-01-13T05:45:58.945Z,99207.56
2023-01-13T05:52:54.272Z,99210.09
2023-01-13T05:55:21.175Z,99207.63
2023-01-13T05:57:48.004Z,99208.84
2023-01-13T06:00:19.921Z,99208.00
2023-01-13T06:02:47.154Z,99207.63
2023-01-13T06:05:14.216Z,99203.50
2023-01-13T06:07:41.367Z,99194.00
2023-01-13T06:10:10.262Z,99198.94
2023-01-13T06:12:39.470Z,99199.28
2023-01-13T06:15:07.749Z,99192.47
2023-01-13T06:17:36.232Z,99188.03
2023-01-13T06:20:03.751Z,99201.31
2023-01-13T06:22:31.222Z,99200.28
2023-01-13T06:24:58.920Z,99205.31
2023-01-13T06:27:26.187Z,99193.81
2023-01-13T06:29:53.069Z,99194.22
2023-01-13T06:32:25.284Z,99197.94
2023-01-13T06:35:05.262Z,99199.44
2023-01-13T06:37:34.495Z,99195.22
2023-01-13T06:40:06.189Z,99192.19
2023-01-13T06:42:36.892Z,99196.69
2023-01-13T06:45:04.656Z,99200.78
2023-01-13T06:47:31.848Z,99200.78
2023-01-13T06:50:00.072Z,99204.09
2023-01-13T06:52:27.103Z,99205.75
2023-01-13T06:54:53.976Z,99200.72
2023-01-13T06:57:20.736Z,99204.22
2023-01-13T06:59:47.514Z,99202.75
2023-01-13T07:02:14.552Z,99201.69
2023-01-13T07:04:41.540Z,99206.63
2023-01-13T07:07:09.698Z,99210.63
2023-01-13T07:09:36.542Z,99208.50
2023-01-13T07:12:03.874Z,99209.31
2023-01-13T07:14:30.770Z,99200.63
2023-01-13T07:16:57.563Z,99203.09
2023-01-13T07:19:24.482Z,99206.63
2023-01-13T07:21:51.400Z,99206.25
2023-01-13T07:24:20.556Z,99214.00
2023-01-13T07:26:47.474Z,99201.53
2023-01-13T07:29:14.352Z,99208.59
2023-01-13T07:31:41.139Z,99196.72
2023-01-13T07:34:08.078Z,99211.06
2023-01-13T07:36:35.286Z,99207.75
2023-01-13T07:39:03.745Z,99209.63
2023-01-13T07:41:31.949Z,99195.53
2023-01-13T07:43:59.193Z,99205.28
2023-01-13T07:46:26.062Z,99193.56
2023-01-13T07:48:53.056Z,99199.44
2023-01-13T07:51:19.917Z,99209.31
2023-01-13T07:53:46.998Z,99216.25
2023-01-13T07:56:13.840Z,99214.81
2023-01-13T07:58:42.113Z,99225.38
2023-01-13T08:01:10.882Z,99214.00
2023-01-13T08:03:38.369Z,99215.25
2023-01-13T08:06:05.874Z,99223.38
2023-01-13T08:08:32.900Z,99235.63
2023-01-13T08:11:00.153Z,99310.28
2023-01-13T08:13:26.999Z,99339.56
2023-01-13T08:16:02.519Z,99351.88
2023-01-13T08:18:30.799Z,99365.50
2023-01-13T08:21:03.121Z,99359.28
2023-01-13T08:23:30.334Z,99358.59
2023-01-13T08:26:00.465Z,99363.84
2023-01-13T08:28:28.611Z,99369.91
2023-01-13T08:31:00.329Z,99374.91
2023-01-13T08:33:27.239Z,99367.94
2023-01-13T08:35:54.311Z,99367.16
2023-01-13T08:38:21.190Z,99369.06
2023-01-13T08:40:48.242Z,99371.38
2023-01-13T08:43:15.495Z,99374.72
2023-01-13T08:45:58.284Z,99382.81
2023-01-13T08:48:33.676Z,99390.69
2023-01-13T08:51:06.648Z,99381.78
2023-01-13T08:53:33.911Z,99390.69
2023-01-13T08:56:07.567Z,99390.25
2023-01-13T08:58:34.437Z,99377.34
2023-01-13T09:01:07.231Z,99388.34
2023-01-13T09:03:34.674Z,99400.34
2023-01-13T09:06:01.539Z,99393.72
2023-01-13T09:08:28.364Z,99404.09
2023-01-13T09:10:55.461Z,99406.94
2023-01-13T09:13:22.535Z,99411.09
2023-01-13T09:15:49.735Z,99415.66
2023-01-13T09:18:18.170Z,99426.88
2023-01-13T09:20:45.331Z,99436.63
2023-01-13T09:23:12.094Z,99435.38
2023-01-13T09:25:39.053Z,99438.44
2023-01-13T09:28:07.147Z,99443.41
2023-01-13T09:30:33.950Z,99439.44
2023-01-13T09:33:01.062Z,99431.31
2023-01-13T09:35:29.266Z,99435.66
2023-01-13T09:37:56.106Z,99441.50
2023-01-13T09:40:24.341Z,99447.72
2023-01-13T09:43:00.073Z,99444.16
2023-01-13T09:45:33.767Z,99449.94
2023-01-13T09:48:13.040Z,99457.59
2023-01-13T09:51:02.911Z,99445.09
2023-01-13T09:53:38.182Z,99455.69
2023-01-13T09:56:06.190Z,99463.09
2023-01-13T09:58:33.562Z,99458.66
2023-01-13T10:01:20.500Z,99457.16
2023-01-13T10:03:47.469Z,99460.75
2023-01-13T10:06:21.804Z,99456.78
2023-01-13T10:08:50.361Z,99460.66
2023-01-13T10:11:20.727Z,99458.22
2023-01-13T10:13:52.260Z,99454.34
2023-01-13T10:16:33.480Z,99458.44
2023-01-13T10:19:11.126Z,99454.59
2023-01-13T10:22:23.206Z,99446.81
2023-01-13T10:25:22.020Z,99445.78
2023-01-13T10:27:53.539Z,99432.44
2023-01-13T10:30:24.924Z,99437.91
2023-01-13T10:32:57.782Z,99433.25
2023-01-13T10:35:53.428Z,99435.63
2023-01-13T10:38:25.830Z,99431.38
2023-01-13T10:40:55.275Z,99438.34
2023-01-13T10:43:23.452Z,99448.34
2023-01-13T10:46:02.353Z,99451.41
2023-01-13T10:48:41.283Z,99462.50
2023-01-13T10:51:21.263Z,99467.81
2023-01-13T10:53:58.772Z,99472.38
2023-01-13T10:56:30.048Z,99484.88
2023-01-13T10:59:23.195Z,99478.91
2023-01-13T11:02:01.175Z,99479.06
2023-01-13T11:04:34.901Z,99479.81
2023-01-13T11:07:03.888Z,99470.84
2023-01-13T11:09:33.291Z,99484.09
2023-01-13T11:12:00.477Z,99497.19
2023-01-13T11:14:39.088Z,99481.63
2023-01-13T11:17:30.711Z,99474.94
2023-01-13T11:20:15.536Z,99479.13
2023-01-13T11:22:47.794Z,99464.50
2023-01-13T11:25:23.585Z,99459.88
2023-01-13T11:27:58.670Z,99448.41
2023-01-13T11:30:36.857Z,99470.63
2023-01-13T11:33:30.703Z,99469.66
2023-01-13T11:36:10.909Z,99457.16
2023-01-13T11:38:46.419Z,99461.72
2023-01-13T11:41:27.258Z,99469.66
2023-01-13T11:44:03.662Z,99480.31
2023-01-13T11:46:30.832Z,99487.91
2023-01-13T11:48:59.462Z,99485.44
2023-01-13T11:51:38.425Z,99488.19
2023-01-13T11:54:53.282Z,99491.31
2023-01-13T11:57:43.925Z,99495.44
2023-01-13T12:00:31.699Z,99479.44
2023-01-13T12:03:22.011Z,99479.28
2023-01-13T12:06:08.190Z,99475.63
2023-01-13T12:09:03.623Z,99451.38
2023-01-13T12:11:42.088Z,99459.78
2023-01-13T12:14:30.898Z,99453.69
2023-01-13T12:17:01.426Z,99465.44
2023-01-13T12:19:31.295Z,99459.41
2023-01-13T12:22:11.396Z,99465.78
2023-01-13T12:24:49.061Z,99464.69
2023-01-13T12:27:25.451Z,99478.66
2023-01-13T12:29:57.650Z,99489.56
2023-01-13T12:32:34.358Z,99509.84
2023-01-13T12:35:23.353Z,99516.84
2023-01-13T12:38:01.838Z,99543.31
2023-01-13T12:40:46.813Z,99539.22
2023-01-13T12:43:18.823Z,99532.31
2023-01-13T12:45:47.044Z,99528.22
2023-01-13T12:49:05.353Z,99532.38
2023-01-13T12:51:35.455Z,99528.72
2023-01-13T12:54:25.053Z,99527.19
2023-01-13T12:56:53.311Z,99526.59
2023-01-13T12:59:44.162Z,99520.97
2023-01-13T13:02:34.347Z,99522.19
2023-01-13T13:05:46.126Z,99521.59
2023-01-13T13:08:29.899Z,99523.25
2023-01-13T13:11:34.776Z,99518.13
2023-01-13T13:14:04.959Z,99526.34
2023-01-13T13:16:49.320Z,99539.66
2023-01-13T13:19:46.819Z,99531.28
2023-01-13T13:22:37.112Z,99526.31
2023-01-13T13:25:26.551Z,99528.19
2023-01-13T13:28:17.442Z,99527.44
2023-01-13T13:31:05.732Z,99527.38
2023-01-13T13:33:56.134Z,99545.06
2023-01-13T13:37:02.089Z,99540.56
2023-01-13T13:39:33.640Z,99547.22
2023-01-13T13:42:12.731Z,99546.63
2023-01-13T13:44:45.848Z,99548.88
2023-01-13T13:47:12.993Z,99555.34
2023-01-13T13:49:43.162Z,99574.97
2023-01-13T13:52:20.795Z,99583.22
2023-01-13T13:54:52.271Z,99573.50
2023-01-13T13:57:26.849Z,99572.59
2023-01-13T13:59:58.595Z,99579.50
2023-01-13T14:02:30.115Z,99582.41
2023-01-13T14:05:19.783Z,99583.28
2023-01-13T14:07:51.755Z,99585.34
2023-01-13T14:10:22.767Z,99601.13
2023-01-13T14:12:49.642Z,99602.38
2023-01-13T14:15:33.773Z,99610.31
2023-01-13T14:18:05.267Z,99610.00
2023-01-13T14:20:33.167Z,99610.75
2023-01-13T14:23:01.579Z,99614.59
2023-01-13T14:25:32.201Z,99615.13
2023-01-13T14:28:13.941Z,99610.97
2023-01-13T14:30:42.258Z,99620.84
2023-01-13T14:33:16.255Z,99627.56
2023-01-13T14:36:11.884Z,99626.81
2023-01-13T14:38:41.129Z,99624.16
2023-01-13T14:41:28.093Z,99633.50
2023-01-13T14:43:59.346Z,99636.03
2023-01-13T14:46:38.081Z,99642.91
2023-01-13T14:49:05.468Z,99649.53
2023-01-13T14:51:32.309Z,99655.97
2023-01-13T14:54:00.520Z,99650.16
2023-01-13T14:56:49.770Z,99655.16
2023-01-13T14:59:35.989Z,99653.91
2023-01-13T15:02:41.060Z,99650.59
2023-01-13T15:05:34.483Z,99659.94
2023-01-13T15:08:17.480Z,99656.81
2023-01-13T15:10:49.220Z,99659.94
2023-01-13T15:13:27.471Z,99672.16
2023-01-13T15:15:58.439Z,99677.94
2023-01-13T15:18:27.406Z,99688.53
2023-01-13T15:20:54.183Z,99692.47
2023-01-13T15:23:21.476Z,99683.97
2023-01-13T15:25:49.192Z,99690.00
2023-01-13T15:28:20.064Z,99687.50
2023-01-13T15:30:47.598Z,99690.63
2023-01-13T15:33:16.147Z,99698.91
2023-01-13T15:35:47.654Z,99689.97
2023-01-13T15:38:18.018Z,99698.47
2023-01-13T15:40:46.272Z,99712.34
2023-01-13T15:43:16.697Z,99711.50
2023-01-13T15:45:45.881Z,99709.41
2023-01-13T15:48:13.774Z,99702.34
2023-01-13T15:50:40.552Z,99714.34
2023-01-13T15:53:14.381Z,99714.34
2023-01-13T15:55:44.864Z,99719.94
2023-01-13T15:58:13.843Z,99725.53
2023-01-13T16:00:41.180Z,99728.84
2023-01-13T16:03:12.858Z,99726.94
2023-01-13T16:05:39.882Z,99724.44
2023-01-13T16:08:14.891Z,99723.59
2023-01-13T16:10:42.926Z,99720.91
2023-01-13T16:13:09.770Z,99736.25
2023-01-13T16:15:40.633Z,99731.69
2023-01-13T16:18:07.563Z,99727.97
2023-01-13T16:20:34.423Z,99715.94
2023-01-13T16:23:01.291Z,99718.41
2023-01-13T16:25:29.693Z,99727.09
2023-01-13T16:27:56.613Z,99719.22
2023-01-13T16:30:31.218Z,99745.34
2023-01-13T16:32:59.172Z,99742.00
2023-01-13T16:35:26.772Z,99746.34
2023-01-13T16:37:53.976Z,99753.19
2023-01-13T16:40:27.074Z,99759.81
2023-01-13T16:42:56.762Z,99756.91
2023-01-13T16:45:24.903Z,99766.59
2023-01-13T16:47:52.024Z,99769.28
2023-01-13T16:50:33.629Z,99779.25
2023-01-13T16:53:00.479Z,99783.59
2023-01-13T16:55:27.794Z,99780.44
2023-01-13T16:57:56.483Z,99778.59
2023-01-13T17:00:24.140Z,99777.16
2023-01-13T17:02:51.039Z,99791.41
2023-01-13T17:05:18.400Z,99791.63
2023-01-13T17:07:47.846Z,99783.13
2023-01-13T17:10:19.138Z,99787.06
2023-01-13T17:12:46.016Z,99787.94
2023-01-13T17:15:18.760Z,99802.03
2023-01-13T17:17:47.672Z,99790.66
2023-01-13T17:20:16.022Z,99784.84
2023-01-13T17:22:45.657Z,99790.09
2023-01-13T17:25:14.416Z,99795.72
2023-01-13T17:27:41.346Z,99803.38
2023-01-13T17:30:11.218Z,99814.38
2023-01-13T17:32:39.430Z,99822.91
2023-01-13T17:35:07.823Z,99826.25
2023-01-13T17:37:35.311Z,99828.69
2023-01-13T17:40:02.165Z,99830.59
2023-01-13T17:42:29.013Z,99830.84
2023-01-13T17:44:55.865Z,99827.91
2023-01-13T17:47:22.703Z,99839.72
2023-01-13T17:49:50.812Z,99853.59
2023-01-13T17:52:17.619Z,99849.03
2023-01-13T17:54:44.344Z,99846.75
2023-01-13T17:57:11.195Z,99856.69
2023-01-13T17:59:38.163Z,99872.44
2023-01-13T18:02:05.288Z,99889.66
2023-01-13T18:04:32.442Z,99876.38
2023-01-13T18:07:00.761Z,99883.88
2023-01-13T18:09:27.561Z,99885.31
2023-01-13T18:11:54.437Z,99890.25
2023-01-13T18:14:21.338Z,99890.31
2023-01-13T18:16:48.316Z,99882.69
2023-01-13T18:19:15.322Z,99889.72
2023-01-13T18:21:43.507Z,99900.94
2023-01-13T18:24:14.016Z,99892.59
2023-01-13T18:26:40.990Z,99898.44
2023-01-13T18:29:07.844Z,99898.25
2023-01-13T18:31:34.740Z,99901.16
2023-01-13T18:34:01.561Z,99899.94
2023-01-13T18:36:28.363Z,99917.38
2023-01-13T18:38:55.684Z,99910.94
2023-01-13T18:41:23.907Z,99918.03
2023-01-13T18:43:50.765Z,99915.53
2023-01-13T18:46:17.668Z,99915.94
2023-01-13T18:48:44.480Z,99932.09
2023-01-13T18:51:11.311Z,99916.53
2023-01-13T18:53:38.160Z,99935.00
2023-01-13T18:56:09.367Z,99935.84
2023-01-13T18:58:39.287Z,99931.69
2023-01-13T19:01:06.367Z,99937.91
2023-01-13T19:03:33.214Z,99938.72
2023-01-13T19:06:03.143Z,99937.09
2023-01-13T19:08:30.392Z,99939.78
2023-01-13T19:10:57.113Z,99929.78
2023-01-13T19:13:23.991Z,99948.59
2023-01-13T19:15:52.165Z,99952.66
2023-01-13T19:18:19.310Z,99940.81
2023-01-13T19:20:46.312Z,99961.34
2023-01-13T19:23:13.141Z,99972.91
2023-01-13T19:25:39.997Z,99981.81
2023-01-13T19:28:07.215Z,99971.03
2023-01-13T19:30:33.980Z,99984.72
2023-01-13T19:33:02.279Z,99990.47
2023-01-13T19:35:29.973Z,99996.06
2023-01-13T19:37:56.885Z,99987.53
2023-01-13T19:40:23.805Z,99992.34
2023-01-13T19:42:50.663Z,99995.81
2023-01-13T19:45:17.625Z,100002.22
2023-01-13T19:47:45.838Z,100009.91
2023-01-13T19:50:14.577Z,100009.84
2023-01-13T19:52:42.421Z,100021.19
2023-01-13T19:55:10.756Z,100020.38
2023-01-13T19:57:39.531Z,100026.41
2023-01-13T20:00:08.997Z,100033.66
2023-01-13T20:02:41.633Z,100027.44
2023-01-13T20:05:09.730Z,100036.53
2023-01-13T20:07:38.013Z,100032.81
2023-01-13T20:10:06.780Z,100045.25
2023-01-13T20:12:33.678Z,100050.00
2023-01-13T20:15:00.815Z,100055.59
2023-01-13T20:17:27.798Z,100061.97
2023-01-13T20:19:54.944Z,100067.56
2023-01-13T20:22:22.038Z,100071.75
2023-01-13T20:24:50.444Z,100073.59
2023-01-13T20:27:17.430Z,100066.75
2023-01-13T20:29:44.208Z,100083.31
2023-01-13T20:32:10.983Z,100079.81
2023-01-13T20:34:38.180Z,100088.91
2023-01-13T20:37:04.947Z,100093.66
2023-01-13T20:39:32.109Z,100083.19
2023-01-13T20:42:00.369Z,100084.84
2023-01-13T20:44:27.674Z,100091.38
2023-01-13T20:46:55.019Z,100093.81
2023-01-13T20:49:22.226Z,100090.28
2023-01-13T20:51:49.484Z,100098.38
2023-01-13T20:54:16.762Z,100098.75
2023-01-13T20:56:44.128Z,100100.63
2023-01-13T20:59:12.926Z,100090.66
2023-01-13T21:01:40.193Z,100093.81
2023-01-13T21:04:08.163Z,100106.06
2023-01-13T21:06:35.699Z,100099.53
2023-01-13T21:09:02.875Z,100095.81
2023-01-13T21:11:29.796Z,100096.75
2023-01-13T21:13:56.626Z,100092.03
2023-01-13T21:16:24.858Z,100093.50
2023-01-13T21:18:51.689Z,100104.25
2023-01-13T21:21:18.859Z,100111.06
2023-01-13T21:23:45.712Z,100107.53
2023-01-13T21:26:12.963Z,100123.50
2023-01-13T21:28:40.057Z,100120.38
2023-01-13T21:31:09.537Z,100121.00
2023-01-13T21:33:38.381Z,100124.16
2023-01-13T21:36:06.174Z,100123.31
2023-01-13T21:38:33.658Z,100118.75
2023-01-13T21:41:03.756Z,100123.81
2023-01-13T21:43:30.848Z,100127.19
2023-01-13T21:45:57.906Z,100133.91
2023-01-13T21:48:24.810Z,100138.78
2023-01-13T21:50:53.308Z,100142.94
2023-01-13T21:53:20.199Z,100140.63
2023-01-13T21:55:50.871Z,100131.59
2023-01-13T21:58:17.814Z,100137.59
2023-01-13T22:00:45.458Z,100141.78
2023-01-13T22:03:13.192Z,100164.06
2023-01-13T22:05:40.808Z,100161.50
2023-01-13T22:08:12.671Z,100166.38
2023-01-13T22:10:39.582Z,100164.25
2023-01-13T22:13:06.283Z,100177.03
2023-01-13T22:15:33.086Z,100179.38
2023-01-13T22:17:59.945Z,100180.31
2023-01-13T22:20:27.114Z,100189.47
2023-01-13T22:22:54.045Z,100195.22
2023-01-13T22:25:22.172Z,100200.00
2023-01-13T22:27:48.949Z,100196.47
2023-01-13T22:30:19.045Z,100192.91
2023-01-13T22:32:46.951Z,100196.09
2023-01-13T22:35:15.724Z,100181.78
2023-01-13T22:37:43.055Z,100185.88
2023-01-13T22:40:12.248Z,100191.72
2023-01-13T22:42:42.374Z,100189.47
2023-01-13T22:45:13.284Z,100190.41
2023-01-13T22:47:40.488Z,100180.59
2023-01-13T22:50:09.696Z,100180.44
2023-01-13T22:52:36.591Z,100179.47
2023-01-13T22:55:04.208Z,100177.34
2023-01-13T22:57:35.905Z,100177.44
2023-01-13T23:00:12.435Z,100184.06
2023-01-13T23:02:39.474Z,100186.13
2023-01-13T23:05:07.093Z,100188.28
2023-01-13T23:07:33.887Z,100183.66
2023-01-13T23:10:00.834Z,100200.34
2023-01-13T23:12:27.716Z,100204.25
2023-01-13T23:14:54.497Z,100195.16
2023-01-13T23:17:22.649Z,100198.88
2023-01-13T23:19:49.533Z,100195.16
2023-01-13T23:22:16.546Z,100196.44
2023-01-13T23:24:43.695Z,100195.06
2023-01-13T23:27:10.703Z,100199.41
2023-01-13T23:29:37.621Z,100203.59
2023-01-13T23:32:05.420Z,100204.53
2023-01-13T23:34:33.671Z,100209.25
2023-01-13T23:37:00.519Z,100197.84
2023-01-13T23:39:27.330Z,100205.34
2023-01-13T23:41:54.204Z,100198.31
2023-01-13T23:44:21.111Z,100199.53
2023-01-13T23:46:48.564Z,100197.22
2023-01-13T23:49:15.516Z,100204.09
2023-01-13T23:51:43.696Z,100205.59
2023-01-13T23:54:10.558Z,100200.84
2023-01-13T23:56:38.284Z,100195.72
2023-01-13T23:59:05.219Z,100194.06
